Time;durP1;ratioP1;P1;durP2;ratioP2;P2;SDS_P1;SDS_P2;PMS_P1;PMS_P2;Temp;Humidity;BMP_temperature;BMP_pressure;BME280_temperature;BME280_humidity;BME280_pressure;Samples;Min_cycle;Max_cycle;Signal;HPM_P1;HPM_P2
2023/10/24 00:01:27;;;;;;;1.20;0.60;;;14.50;86.10;;;;;;5068195;28;20020;-67
2023/10/24 00:03:53;;;;;;;1.27;0.80;;;14.60;86.20;;;;;;5068872;28;20472;-68
2023/10/24 00:06:19;;;;;;;1.92;1.10;;;14.60;86.10;;;;;;5065899;28;20024;-68
2023/10/24 00:08:45;;;;;;;2.47;0.88;;;14.60;86.00;;;;;;5066258;28;20033;-67
2023/10/24 00:11:11;;;;;;;0.50;0.50;;;14.60;85.90;;;;;;5066980;28;20546;-68
2023/10/24 00:13:37;;;;;;;2.50;0.95;;;14.60;86.00;;;;;;5063046;28;20045;-68
2023/10/24 00:16:03;;;;;;;3.47;1.48;;;14.70;86.00;;;;;;5066098;28;20035;-67
2023/10/24 00:18:28;;;;;;;1.45;0.70;;;14.70;85.90;;;;;;5059665;28;20479;-63
2023/10/24 00:20:54;;;;;;;0.73;0.73;;;14.60;85.90;;;;;;5072154;28;20025;-63
2023/10/24 00:23:20;;;;;;;0.88;0.88;;;14.60;85.90;;;;;;5072248;28;20043;-68
2023/10/24 00:25:46;;;;;;;1.33;1.23;;;14.60;86.10;;;;;;5073287;28;20031;-68
2023/10/24 00:28:12;;;;;;;1.73;1.05;;;14.50;86.10;;;;;;5060520;28;20476;-69
2023/10/24 00:30:39;;;;;;;2.25;1.45;;;14.50;86.30;;;;;;5070147;28;20037;-68
2023/10/24 00:33:05;;;;;;;2.35;1.35;;;14.50;86.40;;;;;;5059247;28;20438;-68
2023/10/24 00:35:30;;;;;;;1.73;1.17;;;14.60;86.40;;;;;;5064354;28;20754;-68
2023/10/24 00:37:56;;;;;;;1.65;1.15;;;14.60;86.40;;;;;;5059060;28;20416;-68
2023/10/24 00:40:22;;;;;;;0.93;0.88;;;14.50;86.40;;;;;;5070571;28;20029;-69
2023/10/24 00:42:48;;;;;;;3.53;1.60;;;14.50;86.50;;;;;;5066924;28;20037;-68
2023/10/24 00:45:13;;;;;;;3.60;1.63;;;14.50;86.40;;;;;;5063676;28;20032;-68
2023/10/24 00:47:39;;;;;;;4.55;1.52;;;14.50;86.40;;;;;;5068097;28;20405;-68
2023/10/24 00:50:07;;;;;;;1.13;1.02;;;14.50;86.50;;;;;;5076065;28;20391;-68
2023/10/24 00:52:34;;;;;;;2.47;1.77;;;14.50;86.60;;;;;;5063729;28;20603;-68
2023/10/24 00:55:00;;;;;;;3.85;1.50;;;14.50;86.60;;;;;;5068284;28;20028;-68
2023/10/24 00:57:26;;;;;;;3.28;1.83;;;14.60;86.60;;;;;;5061207;28;20028;-68
2023/10/24 00:59:52;;;;;;;2.17;1.92;;;14.50;86.50;;;;;;5063514;28;20025;-68
2023/10/24 01:02:19;;;;;;;2.50;2.03;;;14.60;86.60;;;;;;5066113;28;20032;-68
2023/10/24 01:04:45;;;;;;;1.77;1.67;;;14.60;86.70;;;;;;5062381;28;20033;-68
2023/10/24 01:07:10;;;;;;;1.65;1.55;;;14.60;86.60;;;;;;5082679;28;20029;-68
2023/10/24 01:09:36;;;;;;;2.05;1.35;;;14.60;86.60;;;;;;5068640;28;20107;-68
2023/10/24 01:12:02;;;;;;;2.75;1.42;;;14.60;86.60;;;;;;5066330;28;20519;-68
2023/10/24 01:14:28;;;;;;;3.55;1.50;;;14.60;86.50;;;;;;5057976;28;20139;-69
2023/10/24 01:16:54;;;;;;;1.92;1.73;;;14.70;86.50;;;;;;5066572;28;20167;-68
2023/10/24 01:19:19;;;;;;;2.63;1.88;;;14.70;86.50;;;;;;5066684;28;20124;-68
2023/10/24 01:21:47;;;;;;;2.47;1.52;;;14.70;86.50;;;;;;5067337;28;20124;-63
2023/10/24 01:24:14;;;;;;;5.38;1.60;;;14.70;86.50;;;;;;5070872;28;20020;-63
2023/10/24 01:26:41;;;;;;;2.60;1.90;;;14.70;86.50;;;;;;5070646;28;20043;-63
2023/10/24 01:29:07;;;;;;;1.30;1.15;;;14.70;86.40;;;;;;5074161;28;20032;-63
2023/10/24 01:31:34;;;;;;;2.30;1.45;;;14.70;86.40;;;;;;5066174;28;20157;-63
2023/10/24 01:33:59;;;;;;;1.70;1.60;;;14.70;86.30;;;;;;5077668;28;20125;-63
2023/10/24 01:36:25;;;;;;;3.40;1.75;;;14.80;86.30;;;;;;5070088;28;20046;-63
2023/10/24 01:38:50;;;;;;;2.17;1.70;;;14.70;86.30;;;;;;5067081;28;20027;-63
2023/10/24 01:41:16;;;;;;;2.00;1.50;;;14.70;86.40;;;;;;5071585;28;20039;-63
2023/10/24 01:43:42;;;;;;;2.80;1.77;;;14.70;86.40;;;;;;5080683;28;20040;-63
2023/10/24 01:46:08;;;;;;;1.60;1.50;;;14.70;86.40;;;;;;5068056;28;20035;-63
2023/10/24 01:48:33;;;;;;;3.50;1.98;;;14.60;86.50;;;;;;5069211;28;20036;-63
2023/10/24 01:50:59;;;;;;;3.03;1.42;;;14.60;86.50;;;;;;5070461;28;20043;-63
2023/10/24 01:53:25;;;;;;;1.77;1.67;;;14.70;86.60;;;;;;5070439;28;20580;-63
2023/10/24 01:55:50;;;;;;;2.17;1.42;;;14.60;86.60;;;;;;5070303;28;20028;-63
2023/10/24 01:58:16;;;;;;;3.38;1.90;;;14.70;86.70;;;;;;5064265;28;20037;-63
2023/10/24 02:00:41;;;;;;;4.70;1.65;;;14.60;86.70;;;;;;5069549;28;20031;-63
2023/10/24 02:03:07;;;;;;;1.70;1.40;;;14.60;86.70;;;;;;5073692;28;20028;-63
2023/10/24 02:05:33;;;;;;;1.83;1.70;;;14.60;86.80;;;;;;5087755;28;20155;-63
2023/10/24 02:07:58;;;;;;;1.95;1.30;;;14.60;86.80;;;;;;5077235;28;20064;-63
2023/10/24 02:10:24;;;;;;;1.60;1.25;;;14.60;86.70;;;;;;5071547;28;20040;-63
2023/10/24 02:12:50;;;;;;;2.22;1.55;;;14.60;86.80;;;;;;5080590;28;20103;-63
2023/10/24 02:15:15;;;;;;;2.25;1.67;;;14.60;86.80;;;;;;5067124;28;20420;-63
2023/10/24 02:17:41;;;;;;;2.13;1.67;;;14.50;86.80;;;;;;5073909;28;20031;-63
2023/10/24 02:20:08;;;;;;;3.78;1.95;;;14.50;86.80;;;;;;5071103;28;20391;-63
2023/10/24 02:22:34;;;;;;;2.10;1.52;;;14.50;86.90;;;;;;5067883;28;20029;-63
2023/10/24 02:24:59;;;;;;;2.17;1.60;;;14.50;86.90;;;;;;5063495;28;20366;-63
2023/10/24 02:27:25;;;;;;;2.38;1.75;;;14.50;87.00;;;;;;5072788;28;20135;-63
2023/10/24 02:29:51;;;;;;;3.58;2.17;;;14.50;87.00;;;;;;5071901;28;20372;-63
2023/10/24 02:32:17;;;;;;;3.47;1.58;;;14.40;87.00;;;;;;5071162;28;20488;-63
2023/10/24 02:34:46;;;;;;;3.38;1.88;;;14.40;87.00;;;;;;5063455;28;20025;-63
2023/10/24 02:37:12;;;;;;;2.28;1.60;;;14.40;86.90;;;;;;5074717;28;20099;-63
2023/10/24 02:39:38;;;;;;;2.03;1.33;;;14.40;86.80;;;;;;5066602;28;20115;-63
2023/10/24 02:42:03;;;;;;;2.33;1.40;;;14.40;86.80;;;;;;5071691;28;20104;-63
2023/10/24 02:44:29;;;;;;;1.60;1.35;;;14.40;86.60;;;;;;5068428;28;20071;-63
2023/10/24 02:46:55;;;;;;;1.88;1.48;;;14.40;86.70;;;;;;5071834;28;20398;-62
2023/10/24 02:49:20;;;;;;;1.20;1.10;;;14.40;86.70;;;;;;5066432;28;20028;-63
2023/10/24 02:51:46;;;;;;;3.28;0.80;;;14.40;86.60;;;;;;5064180;28;20108;-63
2023/10/24 02:54:12;;;;;;;1.02;0.93;;;14.40;86.60;;;;;;5062767;28;20017;-63
2023/10/24 02:56:37;;;;;;;6.97;1.70;;;14.40;86.60;;;;;;5067983;28;20040;-63
2023/10/24 02:59:04;;;;;;;1.80;1.20;;;14.40;86.50;;;;;;5067707;28;20025;-63
2023/10/24 03:01:30;;;;;;;7.03;1.70;;;14.30;86.50;;;;;;5068709;28;20138;-63
2023/10/24 03:03:55;;;;;;;2.40;1.20;;;14.30;86.40;;;;;;5067723;28;20446;-63
2023/10/24 03:06:21;;;;;;;1.25;0.95;;;14.30;86.40;;;;;;5065648;28;20028;-68
2023/10/24 03:08:48;;;;;;;1.50;0.77;;;14.20;86.40;;;;;;5072476;28;20043;-69
2023/10/24 03:11:23;;;;;;;1.00;0.85;;;14.30;86.40;;;;;;5070811;28;20047;-68
2023/10/24 03:13:51;;;;;;;2.38;1.50;;;14.30;86.40;;;;;;5067937;28;20036;-68
2023/10/24 03:16:17;;;;;;;2.22;1.02;;;14.30;86.40;;;;;;5084276;28;20024;-69
2023/10/24 03:18:43;;;;;;;1.25;0.98;;;14.30;86.40;;;;;;5072510;28;20483;-69
2023/10/24 03:21:09;;;;;;;1.67;1.05;;;14.30;86.30;;;;;;5067441;28;20086;-69
2023/10/24 03:23:35;;;;;;;2.05;1.30;;;14.30;86.30;;;;;;5069850;28;20476;-69
2023/10/24 03:26:05;;;;;;;2.35;1.73;;;14.30;86.30;;;;;;5069647;28;20142;-69
2023/10/24 03:28:30;;;;;;;4.63;1.50;;;14.30;86.30;;;;;;5073492;28;20048;-69
2023/10/24 03:31:07;;;;;;;2.35;1.40;;;14.20;86.40;;;;;;5081825;28;20373;-69
2023/10/24 03:33:34;;;;;;;2.10;1.23;;;14.30;86.50;;;;;;5062132;28;20032;-69
2023/10/24 03:36:00;;;;;;;3.33;1.88;;;14.20;86.40;;;;;;5062689;28;20024;-68
2023/10/24 03:38:27;;;;;;;2.22;1.90;;;14.20;86.60;;;;;;5072058;28;20112;-68
2023/10/24 03:40:53;;;;;;;2.90;1.88;;;14.10;86.70;;;;;;5066282;28;20027;-68
2023/10/24 03:43:19;;;;;;;1.75;1.33;;;14.10;86.70;;;;;;5066309;28;20036;-69
2023/10/24 03:45:45;;;;;;;2.22;1.40;;;14.10;86.60;;;;;;5069186;28;20033;-69
2023/10/24 03:48:12;;;;;;;2.85;1.98;;;14.20;86.60;;;;;;5067687;28;20398;-63
2023/10/24 03:50:38;;;;;;;3.85;1.65;;;14.10;86.40;;;;;;5065000;28;20032;-63
2023/10/24 03:53:04;;;;;;;5.03;2.05;;;14.10;86.50;;;;;;5067235;28;20086;-63
2023/10/24 03:55:31;;;;;;;2.28;1.40;;;14.10;86.40;;;;;;5068982;28;20040;-63
2023/10/24 03:57:57;;;;;;;2.63;1.23;;;14.00;86.40;;;;;;5067577;28;20024;-65
2023/10/24 04:00:23;;;;;;;1.45;0.98;;;14.10;86.50;;;;;;5065781;28;20396;-65
2023/10/24 04:02:52;;;;;;;1.77;1.42;;;14.00;86.30;;;;;;5085659;28;20035;-65
2023/10/24 04:05:18;;;;;;;1.58;1.15;;;14.10;86.10;;;;;;5067064;28;20037;-65
2023/10/24 04:07:44;;;;;;;2.03;1.55;;;14.00;86.00;;;;;;5071577;28;20126;-65
2023/10/24 04:10:14;;;;;;;5.10;1.27;;;14.00;85.90;;;;;;5065908;28;20079;-66
2023/10/24 04:12:40;;;;;;;3.00;1.45;;;14.00;85.80;;;;;;5068947;28;20051;-65
2023/10/24 04:15:07;;;;;;;1.00;0.90;;;14.00;85.70;;;;;;5073151;28;20037;-64
2023/10/24 04:17:33;;;;;;;1.35;1.25;;;14.00;85.90;;;;;;5066000;28;20085;-63
2023/10/24 04:19:59;;;;;;;2.45;1.15;;;14.00;85.90;;;;;;5065895;28;20036;-63
2023/10/24 04:22:24;;;;;;;1.35;1.25;;;14.00;86.40;;;;;;5065005;28;20032;-63
2023/10/24 04:24:50;;;;;;;5.00;1.60;;;14.00;85.70;;;;;;5064001;28;20029;-63
2023/10/24 04:27:16;;;;;;;1.98;1.30;;;14.00;85.50;;;;;;5066202;28;20028;-63
2023/10/24 04:29:42;;;;;;;1.95;1.02;;;14.00;85.40;;;;;;5064042;28;20047;-63
2023/10/24 04:32:08;;;;;;;1.63;1.00;;;14.00;85.50;;;;;;5066517;28;20039;-63
2023/10/24 04:34:34;;;;;;;1.95;1.10;;;14.00;85.60;;;;;;5069705;28;20480;-63
2023/10/24 04:37:01;;;;;;;1.58;0.98;;;14.00;85.50;;;;;;5062630;28;20456;-63
2023/10/24 04:39:27;;;;;;;4.00;1.55;;;14.00;85.30;;;;;;5080760;28;20009;-69
2023/10/24 04:41:53;;;;;;;1.30;1.05;;;14.00;85.20;;;;;;5066343;28;20495;-63
2023/10/24 04:44:19;;;;;;;2.00;1.33;;;14.00;85.20;;;;;;5062216;28;20052;-63
2023/10/24 04:46:45;;;;;;;1.95;1.25;;;14.00;85.20;;;;;;5068673;28;20068;-63
2023/10/24 04:49:11;;;;;;;1.00;0.90;;;14.00;85.30;;;;;;5064195;28;20034;-63
2023/10/24 04:51:37;;;;;;;1.10;0.90;;;14.00;85.30;;;;;;5071663;28;20033;-63
2023/10/24 04:54:03;;;;;;;2.05;1.30;;;14.00;85.30;;;;;;5061978;28;20027;-63
2023/10/24 04:56:29;;;;;;;3.72;1.15;;;14.00;85.80;;;;;;5062393;28;20056;-63
2023/10/24 04:58:56;;;;;;;1.48;1.17;;;14.00;85.20;;;;;;5061317;28;20459;-63
2023/10/24 05:01:21;;;;;;;1.85;1.08;;;13.90;85.10;;;;;;5076483;28;20460;-63
2023/10/24 05:03:47;;;;;;;1.05;0.90;;;13.90;85.20;;;;;;5070668;28;20086;-63
2023/10/24 05:06:13;;;;;;;1.40;1.25;;;13.90;85.10;;;;;;5064692;28;20037;-63
2023/10/24 05:08:39;;;;;;;1.15;1.00;;;13.90;84.80;;;;;;5071364;28;20029;-63
2023/10/24 05:11:05;;;;;;;1.05;0.90;;;13.90;85.00;;;;;;5078909;28;20059;-64
2023/10/24 05:13:31;;;;;;;2.30;1.63;;;13.80;85.10;;;;;;5072803;28;20045;-63
2023/10/24 05:15:57;;;;;;;1.65;1.10;;;13.90;85.00;;;;;;5074801;28;20040;-63
2023/10/24 05:18:22;;;;;;;3.45;1.23;;;13.90;85.00;;;;;;5070036;28;20021;-63
2023/10/24 05:20:48;;;;;;;3.17;1.33;;;13.90;85.00;;;;;;5075016;28;20039;-63
2023/10/24 05:23:14;;;;;;;1.52;1.20;;;13.90;84.80;;;;;;5077710;28;20391;-63
2023/10/24 05:25:42;;;;;;;1.92;1.13;;;13.90;84.80;;;;;;5090381;28;20040;-63
2023/10/24 05:28:08;;;;;;;2.75;1.27;;;13.90;84.80;;;;;;5070706;28;20028;-63
2023/10/24 05:30:33;;;;;;;1.95;1.25;;;13.90;84.80;;;;;;5072184;28;20081;-63
2023/10/24 05:32:59;;;;;;;2.42;1.35;;;13.90;84.60;;;;;;5069963;28;20028;-63
2023/10/24 05:35:25;;;;;;;1.48;1.23;;;13.80;84.70;;;;;;5072878;28;20031;-69
2023/10/24 05:37:51;;;;;;;1.95;1.48;;;13.80;84.70;;;;;;5074026;28;20024;-70
2023/10/24 05:40:17;;;;;;;2.67;1.20;;;13.80;85.30;;;;;;5068608;28;20056;-70
2023/10/24 05:42:44;;;;;;;5.45;1.35;;;13.80;84.80;;;;;;5072429;28;20484;-70
2023/10/24 05:45:10;;;;;;;2.22;1.58;;;13.80;84.70;;;;;;5074752;28;20070;-70
2023/10/24 05:47:35;;;;;;;2.45;1.27;;;13.80;84.70;;;;;;5073695;28;20064;-69
2023/10/24 05:50:01;;;;;;;2.63;1.60;;;13.70;84.80;;;;;;5080029;28;20028;-69
2023/10/24 05:52:26;;;;;;;2.40;1.80;;;13.80;85.00;;;;;;5070619;28;20062;-69
2023/10/24 05:54:52;;;;;;;1.73;1.58;;;13.80;85.00;;;;;;5074432;28;20056;-70
2023/10/24 05:57:18;;;;;;;1.60;1.33;;;13.80;84.90;;;;;;5069183;28;20488;-69
2023/10/24 05:59:44;;;;;;;3.65;1.25;;;13.80;84.80;;;;;;5060773;28;20027;-70
2023/10/24 06:02:09;;;;;;;2.63;1.67;;;13.80;84.90;;;;;;5075806;28;20040;-70
2023/10/24 06:04:35;;;;;;;7.93;1.75;;;13.80;84.50;;;;;;5069076;28;20036;-70
2023/10/24 06:07:01;;;;;;;1.83;1.23;;;13.80;84.60;;;;;;5073203;28;20044;-70
2023/10/24 06:09:27;;;;;;;3.33;2.03;;;13.80;84.50;;;;;;5068896;28;20039;-70
2023/10/24 06:11:53;;;;;;;2.38;1.55;;;13.80;84.50;;;;;;5074164;28;20044;-69
2023/10/24 06:14:18;;;;;;;2.13;1.35;;;13.80;84.50;;;;;;5071220;28;20028;-70
2023/10/24 06:16:44;;;;;;;2.55;1.38;;;13.80;84.40;;;;;;5068639;28;20053;-69
2023/10/24 06:19:10;;;;;;;4.25;2.20;;;13.80;84.40;;;;;;5068984;28;20036;-70
2023/10/24 06:21:35;;;;;;;3.42;1.98;;;13.80;84.10;;;;;;5065112;28;20032;-70
2023/10/24 06:24:01;;;;;;;3.13;1.73;;;13.80;84.20;;;;;;5061651;28;20025;-70
2023/10/24 06:26:27;;;;;;;2.33;1.65;;;13.80;84.20;;;;;;5066484;28;20502;-70
2023/10/24 06:28:52;;;;;;;3.05;1.48;;;13.80;84.20;;;;;;5060152;28;20025;-70
2023/10/24 06:31:18;;;;;;;2.80;1.67;;;13.80;84.20;;;;;;5067873;28;20436;-70
2023/10/24 06:33:44;;;;;;;2.35;1.58;;;13.80;84.00;;;;;;5065435;28;20048;-70
2023/10/24 06:36:10;;;;;;;3.10;1.58;;;13.80;84.10;;;;;;5079204;28;20032;-70
2023/10/24 06:38:35;;;;;;;1.65;1.52;;;13.80;84.10;;;;;;5067313;28;20028;-70
2023/10/24 06:41:01;;;;;;;1.98;1.55;;;13.80;84.00;;;;;;5063568;28;20029;-70
2023/10/24 06:43:27;;;;;;;2.25;1.33;;;13.80;84.00;;;;;;5063959;28;20114;-70
2023/10/24 06:45:53;;;;;;;1.40;1.30;;;13.80;84.00;;;;;;5070683;28;20311;-70
2023/10/24 06:48:19;;;;;;;2.75;1.45;;;13.80;83.90;;;;;;5071683;28;20023;-70
2023/10/24 06:50:45;;;;;;;1.77;1.38;;;13.80;83.80;;;;;;5070035;28;20033;-69
2023/10/24 06:53:11;;;;;;;1.63;1.40;;;13.80;83.70;;;;;;5066472;28;20407;-69
2023/10/24 06:55:38;;;;;;;2.08;1.23;;;13.80;83.60;;;;;;5062755;28;21412;-70
2023/10/24 06:58:04;;;;;;;4.15;1.67;;;13.80;83.60;;;;;;5063049;28;20017;-70
2023/10/24 07:00:31;;;;;;;2.15;1.50;;;13.80;83.50;;;;;;5069185;28;20028;-69
2023/10/24 07:02:56;;;;;;;2.25;1.08;;;13.80;83.60;;;;;;5065526;28;20556;-63
2023/10/24 07:05:22;;;;;;;2.53;1.15;;;13.80;83.50;;;;;;5068552;28;20132;-63
2023/10/24 07:07:48;;;;;;;1.85;1.30;;;13.80;83.40;;;;;;5062792;28;20148;-62
2023/10/24 07:10:14;;;;;;;1.98;1.50;;;13.70;83.30;;;;;;5063231;28;20063;-62
2023/10/24 07:12:39;;;;;;;1.77;1.50;;;13.70;83.20;;;;;;5065726;28;20060;-62
2023/10/24 07:15:06;;;;;;;2.95;1.58;;;13.70;83.30;;;;;;5067340;28;20040;-64
2023/10/24 07:17:32;;;;;;;2.63;1.27;;;13.70;83.20;;;;;;5064813;28;20122;-63
2023/10/24 07:20:01;;;;;;;1.65;1.17;;;13.70;83.20;;;;;;5068612;28;20032;-64
2023/10/24 07:22:29;;;;;;;2.47;1.60;;;13.70;83.30;;;;;;5074164;28;20040;-64
2023/10/24 07:24:55;;;;;;;1.73;1.17;;;13.70;83.30;;;;;;5066020;28;20062;-64
2023/10/24 07:27:21;;;;;;;2.30;1.27;;;13.70;83.10;;;;;;5072645;28;20040;-63
2023/10/24 07:29:47;;;;;;;1.90;0.98;;;13.70;83.20;;;;;;5052138;28;20149;-63
2023/10/24 07:32:13;;;;;;;2.10;1.48;;;13.80;83.30;;;;;;5055424;28;20036;-63
2023/10/24 07:34:41;;;;;;;1.35;1.25;;;13.80;83.20;;;;;;5064733;28;20025;-64
2023/10/24 07:37:08;;;;;;;1.55;1.33;;;13.90;82.90;;;;;;5069908;28;20312;-64
2023/10/24 07:39:34;;;;;;;2.80;1.40;;;13.80;82.70;;;;;;5063542;28;20089;-63
2023/10/24 07:42:00;;;;;;;1.83;1.50;;;13.80;82.70;;;;;;5062114;28;20100;-63
2023/10/24 07:44:26;;;;;;;2.35;1.63;;;13.80;82.70;;;;;;5052632;28;20040;-63
2023/10/24 07:46:52;;;;;;;1.27;1.17;;;13.80;82.70;;;;;;5078805;28;20033;-63
2023/10/24 07:49:17;;;;;;;1.50;0.95;;;13.80;82.90;;;;;;5053830;28;20021;-63
2023/10/24 07:51:43;;;;;;;1.83;1.15;;;13.80;82.70;;;;;;5067795;28;20028;-63
2023/10/24 07:54:10;;;;;;;1.42;0.77;;;13.80;82.90;;;;;;5059879;28;20395;-63
2023/10/24 07:56:37;;;;;;;1.83;1.40;;;13.80;82.90;;;;;;5067509;28;20695;-62
2023/10/24 07:59:04;;;;;;;1.10;1.00;;;13.80;82.90;;;;;;5066388;28;20039;-63
2023/10/24 08:01:29;;;;;;;2.40;1.35;;;13.80;82.80;;;;;;5069764;28;20059;-70
2023/10/24 08:03:55;;;;;;;2.22;1.20;;;13.80;82.70;;;;;;5062076;28;20045;-70
2023/10/24 08:06:21;;;;;;;1.02;0.80;;;13.90;82.80;;;;;;5063639;28;20041;-70
2023/10/24 08:08:47;;;;;;;1.23;0.95;;;13.90;82.60;;;;;;5064190;28;20504;-70
2023/10/24 08:11:13;;;;;;;0.70;0.60;;;13.90;82.50;;;;;;5072403;28;20063;-70
2023/10/24 08:13:39;;;;;;;2.00;1.27;;;13.90;82.60;;;;;;5068216;28;20595;-70
2023/10/24 08:16:06;;;;;;;2.17;1.17;;;13.90;82.50;;;;;;5069953;28;20036;-70
2023/10/24 08:18:34;;;;;;;1.38;1.10;;;13.90;82.40;;;;;;5061936;28;20082;-70
2023/10/24 08:21:00;;;;;;;1.90;1.20;;;13.90;82.50;;;;;;5062220;28;20029;-70
2023/10/24 08:23:28;;;;;;;2.45;1.05;;;13.90;82.60;;;;;;5062730;28;20131;-70
2023/10/24 08:25:54;;;;;;;2.80;1.67;;;13.90;82.40;;;;;;5056982;28;20044;-70
2023/10/24 08:28:19;;;;;;;2.45;1.35;;;13.90;82.60;;;;;;5058457;28;20480;-70
2023/10/24 08:30:45;;;;;;;2.17;1.20;;;13.90;82.40;;;;;;5070124;28;20051;-70
2023/10/24 08:33:11;;;;;;;2.03;1.17;;;14.00;82.50;;;;;;5065919;28;20060;-70
2023/10/24 08:35:37;;;;;;;1.50;1.10;;;14.00;82.60;;;;;;5067800;28;20036;-70
2023/10/24 08:38:03;;;;;;;2.33;1.45;;;14.00;83.20;;;;;;5066569;28;20032;-70
2023/10/24 08:40:29;;;;;;;1.35;1.02;;;14.10;82.60;;;;;;5063310;28;20044;-70
2023/10/24 08:42:56;;;;;;;2.00;1.40;;;14.10;82.50;;;;;;5059290;28;20101;-70
2023/10/24 08:45:21;;;;;;;2.30;1.70;;;14.20;82.50;;;;;;5063184;28;20391;-70
2023/10/24 08:47:48;;;;;;;1.70;1.33;;;14.30;82.40;;;;;;5068962;28;20029;-70
2023/10/24 08:50:14;;;;;;;3.17;1.42;;;14.40;82.10;;;;;;5074582;28;20029;-70
2023/10/24 08:52:42;;;;;;;2.00;1.50;;;14.50;82.10;;;;;;5057269;28;20087;-70
2023/10/24 08:55:08;;;;;;;5.60;2.40;;;14.60;81.90;;;;;;5063604;28;20027;-70
2023/10/24 08:57:39;;;;;;;2.35;1.75;;;14.60;81.50;;;;;;5065635;28;20396;-70
2023/10/24 09:00:11;;;;;;;3.40;1.47;;;14.70;81.60;;;;;;5075453;28;20029;-70
2023/10/24 09:02:38;;;;;;;3.20;1.73;;;14.70;81.50;;;;;;5067684;28;20528;-70
2023/10/24 09:05:05;;;;;;;2.78;1.70;;;14.70;81.60;;;;;;5060227;28;20055;-70
2023/10/24 09:07:31;;;;;;;3.85;2.00;;;14.70;81.50;;;;;;5073215;28;20040;-70
2023/10/24 09:09:57;;;;;;;3.05;1.98;;;14.80;81.40;;;;;;5065127;28;20048;-70
2023/10/24 09:12:23;;;;;;;4.93;2.42;;;14.80;80.60;;;;;;5065163;28;20577;-70
2023/10/24 09:14:48;;;;;;;2.47;1.95;;;14.70;80.70;;;;;;5075827;28;20078;-70
2023/10/24 09:17:15;;;;;;;2.90;1.67;;;14.80;80.90;;;;;;5068018;28;20040;-70
2023/10/24 09:19:41;;;;;;;1.80;1.35;;;14.90;80.90;;;;;;5065333;28;20021;-70
2023/10/24 09:22:08;;;;;;;3.33;2.15;;;14.90;80.70;;;;;;5055651;28;20032;-70
2023/10/24 09:24:35;;;;;;;3.78;2.42;;;14.90;80.50;;;;;;5044741;28;20064;-70
2023/10/24 09:27:01;;;;;;;3.40;1.90;;;14.90;80.60;;;;;;5054377;28;20030;-70
2023/10/24 09:29:27;;;;;;;2.83;1.90;;;14.80;80.50;;;;;;5053356;28;20037;-63
2023/10/24 09:31:58;;;;;;;3.08;1.73;;;14.90;80.40;;;;;;5059228;28;20029;-63
2023/10/24 09:34:24;;;;;;;3.33;1.85;;;14.90;80.40;;;;;;5058569;28;20028;-63
2023/10/24 09:36:50;;;;;;;3.25;2.00;;;14.90;80.50;;;;;;5055605;28;20037;-62
2023/10/24 09:39:16;;;;;;;2.30;1.92;;;15.00;80.30;;;;;;5052512;28;20104;-69
2023/10/24 09:41:44;;;;;;;3.50;2.05;;;15.10;80.30;;;;;;5059451;28;20112;-63
2023/10/24 09:44:10;;;;;;;6.18;1.80;;;15.10;80.20;;;;;;5055636;28;20036;-64
2023/10/24 09:46:37;;;;;;;3.33;2.00;;;15.10;80.10;;;;;;5060465;28;20558;-63
2023/10/24 09:49:05;;;;;;;3.78;2.42;;;15.20;81.20;;;;;;5062971;28;20040;-63
2023/10/24 09:51:37;;;;;;;2.22;1.77;;;15.30;79.70;;;;;;5055920;28;20737;-63
2023/10/24 09:54:11;;;;;;;2.10;1.90;;;15.60;80.20;;;;;;5056101;28;20028;-63
2023/10/24 09:56:38;;;;;;;3.30;2.08;;;15.80;79.40;;;;;;5069492;28;20484;-63
2023/10/24 09:59:04;;;;;;;3.58;2.25;;;15.90;77.80;;;;;;5061137;28;20507;-63
2023/10/24 10:01:31;;;;;;;2.58;1.75;;;15.90;77.40;;;;;;5075948;28;20037;-63
2023/10/24 10:04:00;;;;;;;3.70;1.85;;;16.00;77.60;;;;;;5059257;28;20067;-63
2023/10/24 10:06:29;;;;;;;2.67;1.70;;;16.10;77.50;;;;;;5058914;28;20082;-64
2023/10/24 10:08:58;;;;;;;4.22;1.50;;;16.20;77.20;;;;;;5063348;28;20028;-64
2023/10/24 10:11:30;;;;;;;1.88;1.55;;;16.30;77.30;;;;;;5060961;28;20439;-63
2023/10/24 10:14:25;;;;;;;4.20;1.65;;;16.40;77.00;;;;;;5064292;28;20041;-63
2023/10/24 10:16:59;;;;;;;2.17;1.65;;;16.40;76.40;;;;;;5063933;28;20522;-63
2023/10/24 10:19:40;;;;;;;3.97;1.65;;;16.30;76.30;;;;;;5061112;28;20124;-63
2023/10/24 10:22:34;;;;;;;3.35;2.00;;;16.20;76.50;;;;;;5065563;28;20035;-63
2023/10/24 10:25:17;;;;;;;1.90;1.60;;;16.10;76.90;;;;;;5060762;28;20042;-63
2023/10/24 10:28:01;;;;;;;1.27;1.15;;;16.00;77.20;;;;;;5063975;28;20056;-63
2023/10/24 10:30:47;;;;;;;1.67;1.45;;;15.90;77.50;;;;;;5058643;28;20029;-63
2023/10/24 10:33:18;;;;;;;1.45;1.25;;;15.80;77.00;;;;;;5062606;28;20433;-64
2023/10/24 10:35:48;;;;;;;1.55;1.33;;;15.70;77.50;;;;;;5061072;28;20025;-63
2023/10/24 10:38:23;;;;;;;1.63;1.25;;;15.70;77.60;;;;;;5063468;28;20056;-64
2023/10/24 10:40:49;;;;;;;1.65;1.17;;;15.70;77.90;;;;;;5066180;28;20031;-63
2023/10/24 10:43:30;;;;;;;1.52;1.40;;;15.70;78.00;;;;;;5061635;28;20032;-63
2023/10/24 10:46:16;;;;;;;2.35;1.70;;;15.80;77.20;;;;;;5067320;28;20095;-64
2023/10/24 10:48:42;;;;;;;1.00;0.90;;;15.80;76.70;;;;;;5062356;28;20052;-71
2023/10/24 10:51:12;;;;;;;2.80;1.63;;;15.90;77.20;;;;;;5064833;28;20378;-70
2023/10/24 10:53:52;;;;;;;3.72;1.63;;;16.00;77.00;;;;;;5058589;28;20163;-70
2023/10/24 10:56:23;;;;;;;2.45;1.85;;;16.00;76.60;;;;;;5062106;28;20537;-70
2023/10/24 10:59:09;;;;;;;1.42;0.98;;;16.00;76.70;;;;;;5058358;28;20025;-70
2023/10/24 11:02:09;;;;;;;2.20;1.30;;;16.00;76.70;;;;;;5061726;28;20021;-70
2023/10/24 11:04:35;;;;;;;2.55;1.02;;;16.00;76.70;;;;;;5066703;28;20060;-70
2023/10/24 11:07:04;;;;;;;1.65;1.20;;;16.00;76.80;;;;;;5057953;28;20037;-70
2023/10/24 11:09:35;;;;;;;2.13;1.20;;;16.00;76.90;;;;;;5063891;28;20035;-70
2023/10/24 11:12:24;;;;;;;4.70;1.75;;;16.00;77.10;;;;;;5058522;28;20546;-70
2023/10/24 11:15:10;;;;;;;1.67;1.38;;;16.00;76.80;;;;;;5057686;28;20021;-70
2023/10/24 11:17:36;;;;;;;1.40;1.15;;;16.00;76.90;;;;;;5064318;28;20041;-63
2023/10/24 11:20:07;;;;;;;1.48;1.13;;;16.00;77.00;;;;;;5062993;28;20032;-63
2023/10/24 11:22:34;;;;;;;2.25;2.05;;;16.00;77.20;;;;;;5060260;28;20032;-63
2023/10/24 11:25:07;;;;;;;2.60;1.55;;;15.90;76.80;;;;;;5062937;28;20036;-63
2023/10/24 11:27:33;;;;;;;3.63;1.45;;;15.90;76.90;;;;;;5061610;28;20425;-63
2023/10/24 11:29:59;;;;;;;1.92;1.52;;;15.80;77.30;;;;;;5059780;28;20025;-63
2023/10/24 11:32:25;;;;;;;5.25;2.10;;;15.90;77.60;;;;;;5061681;28;20448;-63
2023/10/24 11:34:50;;;;;;;1.52;1.27;;;15.90;77.20;;;;;;5061728;28;20036;-63
2023/10/24 11:37:16;;;;;;;2.70;1.50;;;15.90;77.50;;;;;;5057135;28;20031;-64
2023/10/24 11:39:42;;;;;;;1.35;0.88;;;15.90;77.50;;;;;;5058272;28;20021;-64
2023/10/24 11:42:08;;;;;;;1.13;1.00;;;15.90;77.60;;;;;;5057299;28;20053;-64
2023/10/24 11:44:34;;;;;;;2.20;1.10;;;15.90;77.60;;;;;;5059314;28;20141;-64
2023/10/24 11:47:02;;;;;;;4.47;1.90;;;15.90;77.60;;;;;;5061519;28;20029;-63
2023/10/24 11:49:35;;;;;;;2.65;1.60;;;15.90;77.40;;;;;;5060118;28;20035;-63
2023/10/24 11:52:05;;;;;;;1.73;1.40;;;15.80;77.50;;;;;;5056062;28;20033;-63
2023/10/24 11:54:30;;;;;;;4.03;1.30;;;15.70;77.70;;;;;;5056320;28;20079;-63
2023/10/24 11:56:56;;;;;;;1.60;1.10;;;15.70;78.50;;;;;;5062949;28;20451;-63
2023/10/24 11:59:22;;;;;;;1.95;1.40;;;15.60;78.10;;;;;;5068322;28;20024;-63
2023/10/24 12:01:49;;;;;;;1.50;1.40;;;15.70;78.30;;;;;;5064684;28;20024;-63
2023/10/24 12:04:15;;;;;;;1.80;1.50;;;15.70;78.50;;;;;;5063595;28;20032;-63
2023/10/24 12:06:41;;;;;;;1.33;1.10;;;15.60;78.20;;;;;;5055118;28;20025;-63
2023/10/24 12:09:07;;;;;;;2.33;1.83;;;15.60;78.60;;;;;;5061717;28;20729;-63
2023/10/24 12:11:34;;;;;;;3.22;1.42;;;15.50;78.60;;;;;;5064675;28;20033;-63
2023/10/24 12:14:00;;;;;;;5.82;1.73;;;15.40;79.00;;;;;;5064845;28;20036;-63
2023/10/24 12:16:34;;;;;;;1.92;1.52;;;15.40;79.40;;;;;;5065464;28;20020;-63
2023/10/24 12:18:59;;;;;;;1.52;1.30;;;15.30;79.50;;;;;;5061993;28;20055;-63
2023/10/24 12:21:25;;;;;;;1.70;1.60;;;15.30;79.80;;;;;;5063946;28;20949;-64
2023/10/24 12:23:51;;;;;;;2.17;1.42;;;15.30;80.00;;;;;;5078800;28;20557;-64
2023/10/24 12:26:16;;;;;;;1.35;1.23;;;15.20;80.20;;;;;;5060188;28;20396;-63
2023/10/24 12:28:42;;;;;;;1.20;1.10;;;15.20;80.60;;;;;;5059739;28;20483;-63
2023/10/24 12:31:09;;;;;;;3.15;1.25;;;15.20;80.70;;;;;;5079920;28;20032;-63
2023/10/24 12:33:35;;;;;;;4.03;1.50;;;15.20;80.90;;;;;;5067202;28;20032;-63
2023/10/24 12:36:01;;;;;;;1.73;1.10;;;15.30;81.10;;;;;;5050651;28;20521;-64
2023/10/24 12:38:27;;;;;;;1.08;0.90;;;15.30;81.00;;;;;;5058732;28;20029;-63
2023/10/24 12:40:52;;;;;;;3.03;1.02;;;15.30;81.00;;;;;;5060915;28;20025;-63
2023/10/24 12:43:18;;;;;;;1.35;1.25;;;15.30;80.80;;;;;;5063354;28;21049;-63
2023/10/24 12:45:44;;;;;;;2.53;1.08;;;15.20;81.10;;;;;;5065815;28;20036;-64
2023/10/24 12:48:13;;;;;;;1.60;0.82;;;15.10;81.30;;;;;;5080885;28;20033;-64